Ridgecrest, CA

10:50 PM PDT on September 18, 2014 (GMT -0700)
Mojave | Change Station
CLOSE
Current Station
Airport
Location: Mojave,
Elevation: 2785 ft
Nearby Weather Stations

Elev 2785 ft 35.06 °N, 118.15 °W | Updated 15 minutes ago

Clear
Clear
72 °F
Feels Like 72 °F
N
14
Wind Variable Wind from West
Gusts 24 mph

Today
High -- | Low -- °F
--% Chance of Precip.
Yesterday
High -- | Low -- °F
Precip. -- in
6:35 AM 6:53 PM
Waning Crescent, 21% visible
Pressure 29.88 in
Visibility 10.0 miles
Clouds Clear
Dew Point 52 °F
Humidity 50%
Rainfall 0.00 in
Snow Depth 0 in , 0 in , 0 in
UV 0 out of 12
Pollen 7.00 out of 12
Air Quality Not available.
Flu Activity Not available.
METAR KMHV 190535Z AUTO 27012G21KT 10SM CLR 22/11 A2988 RMK AO1

More Conditions Fewer Conditions

Pressure 29.88 in
Visibility 10.0 miles
Clouds Clear
Dew Point 52 °F
Humidity 50%
Rainfall 0.00 in
Snow Depth 0 in , 0 in , 0 in
UV 0 out of 12
Pollen 7.00 out of 12
Air Quality Not available.
Flu Activity Not available.
METAR KMHV 190535Z AUTO 27012G21KT 10SM CLR 22/11 A2988 RMK AO1

More Conditions Fewer Conditions

10-Day Weather Forecast

Almanac

Astronomy

Sep. 18, 2014 Rise Set
Actual Time 6:35 AM PDT 6:53 PM PDT
Civil Twilight 6:10 AM PDT 7:18 PM PDT
Nautical Twilight 5:40 AM PDT 7:48 PM PDT
Astronomical Twilight 5:09 AM PDT 8:18 PM PDT
Moon 1:39 AM PDT (9/18) 3:40 PM PDT (9/18)
Length of Visible Light 13h 08m
Length of Day
12h 17m
Tomorrow will be 2m 13s shorter.
Waning Crescent, 21% of the Moon is Illuminated
Sep 19
Waning Crescent
Sep 24
New
Oct 1
First Quarter
Oct 8
Full
Oct 15
Last Quarter

Yesterday's Extremes

State Highs State Lows

Community

WunderPhotos

Upload Photos

1,754,573 photos uploaded!

Nearby

Snow Depth

Station Depth Elevation
Burnside Lake 0 in 8139 ft
Heavenly Valley 0 in 8850 ft
Tahoe City Cross 0 in 6750 ft
Blue Lakes 0 in 8000 ft
Summit Meadow 1 in 9122 ft

Earthquake Activity

City Distance Mag. Time & Date
Corcoran, California 116 miles 3.0 3:59 PM PDT
2014-09-18
Minimum magnitude displayed is 2.5.

Coastal Water Temperatures

Place Temperature
No Stations Reporting

Nearby Weather Stations